createdAt,value
2023-05-24T00:00:04.944Z,18.11
2023-05-24T00:02:52.486Z,18.08
2023-05-24T00:05:20.223Z,18.07
2023-05-24T00:07:47.688Z,18.07
2023-05-24T00:10:15.541Z,18.07
2023-05-24T00:12:43.077Z,18.06
2023-05-24T00:15:10.746Z,18.07
2023-05-24T00:17:41.311Z,18.07
2023-05-24T00:20:14.225Z,18.06
2023-05-24T00:22:42.110Z,18.07
2023-05-24T00:25:09.789Z,18.07
2023-05-24T00:27:37.527Z,18.07
2023-05-24T00:30:08.533Z,18.07
2023-05-24T00:32:36.055Z,18.07
2023-05-24T00:35:03.947Z,18.07
2023-05-24T00:37:31.469Z,18.06
2023-05-24T00:39:58.946Z,18.05
2023-05-24T00:42:26.420Z,18.04
2023-05-24T00:44:53.884Z,18.04
2023-05-24T00:47:21.646Z,18.02
2023-05-24T00:49:49.308Z,18.01
2023-05-24T00:52:17.853Z,18.01
2023-05-24T00:54:45.402Z,18.01
2023-05-24T00:57:14.036Z,17.99
2023-05-24T00:59:41.957Z,17.98
2023-05-24T01:02:09.468Z,17.96
2023-05-24T01:04:37.877Z,17.94
2023-05-24T01:07:37.285Z,17.93
2023-05-24T01:10:10.059Z,17.92
2023-05-24T01:13:10.502Z,17.91
2023-05-24T01:15:56.723Z,17.90
2023-05-24T01:18:32.047Z,17.88
2023-05-24T01:21:15.929Z,17.87
2023-05-24T01:24:05.903Z,17.85
2023-05-24T01:26:48.943Z,17.84
2023-05-24T01:29:19.057Z,17.82
2023-05-24T01:31:46.704Z,17.81
2023-05-24T01:34:14.510Z,17.79
2023-05-24T01:36:42.018Z,17.78
2023-05-24T01:39:09.852Z,17.76
2023-05-24T01:41:41.116Z,17.75
2023-05-24T01:44:23.572Z,17.75
2023-05-24T01:47:03.059Z,17.73
2023-05-24T01:49:37.292Z,17.73
2023-05-24T01:52:29.112Z,17.70
2023-05-24T01:54:58.074Z,17.67
2023-05-24T01:57:27.446Z,17.65
2023-05-24T01:59:57.171Z,17.63
2023-05-24T02:02:24.987Z,17.62
2023-05-24T02:04:52.784Z,17.59
2023-05-24T02:07:20.282Z,17.56
2023-05-24T02:09:47.740Z,17.52
2023-05-24T02:12:15.466Z,17.51
2023-05-24T02:14:44.631Z,17.48
2023-05-24T02:17:12.309Z,17.46
2023-05-24T02:19:39.847Z,17.44
2023-05-24T02:22:07.732Z,17.42
2023-05-24T02:24:36.551Z,17.41
2023-05-24T02:27:04.142Z,17.39
2023-05-24T02:29:31.629Z,17.37
2023-05-24T02:32:00.583Z,17.36
2023-05-24T02:34:28.091Z,17.34
2023-05-24T02:36:55.890Z,17.32
2023-05-24T02:39:24.060Z,17.30
2023-05-24T02:41:52.055Z,17.28
2023-05-24T02:44:19.729Z,17.24
2023-05-24T02:46:47.389Z,17.21
2023-05-24T02:49:15.275Z,17.19
2023-05-24T02:51:42.750Z,17.17
2023-05-24T02:54:10.272Z,17.16
2023-05-24T02:56:39.940Z,17.14
2023-05-24T02:59:07.927Z,17.12
2023-05-24T03:01:35.490Z,17.12
2023-05-24T03:04:03.235Z,17.13
2023-05-24T03:06:30.971Z,17.13
2023-05-24T03:08:59.184Z,17.15
2023-05-24T03:11:27.254Z,17.16
2023-05-24T03:13:54.716Z,17.18
2023-05-24T03:16:22.258Z,17.20
2023-05-24T03:18:55.422Z,17.21
2023-05-24T03:21:23.528Z,17.23
2023-05-24T03:23:51.462Z,17.24
2023-05-24T03:26:19.072Z,17.26
2023-05-24T03:28:47.679Z,17.27
2023-05-24T03:31:15.131Z,17.27
2023-05-24T03:33:42.702Z,17.28
2023-05-24T03:36:10.214Z,17.28
2023-05-24T03:38:37.775Z,17.28
2023-05-24T03:41:05.595Z,17.30
2023-05-24T03:43:33.107Z,17.31
2023-05-24T03:46:00.580Z,17.33
2023-05-24T03:48:28.182Z,17.34
2023-05-24T03:50:56.137Z,17.35
2023-05-24T03:53:23.762Z,17.38
2023-05-24T03:55:52.140Z,17.40
2023-05-24T03:58:19.665Z,17.41
2023-05-24T04:00:47.240Z,17.42
2023-05-24T04:03:15.014Z,17.45
2023-05-24T04:05:42.879Z,17.48
2023-05-24T04:08:10.602Z,17.51
2023-05-24T04:10:39.121Z,17.53
2023-05-24T04:13:06.712Z,17.53
2023-05-24T04:15:34.232Z,17.53
2023-05-24T04:18:03.309Z,17.51
2023-05-24T04:20:31.274Z,17.51
2023-05-24T04:22:58.874Z,17.50
2023-05-24T04:25:27.677Z,17.48
2023-05-24T04:27:56.166Z,17.48
2023-05-24T04:30:23.713Z,17.48
2023-05-24T04:32:51.705Z,17.46
2023-05-24T04:35:19.415Z,17.46
2023-05-24T04:37:48.275Z,17.49
2023-05-24T04:40:20.821Z,17.53
2023-05-24T04:42:49.523Z,17.57
2023-05-24T04:45:17.189Z,17.63
2023-05-24T04:47:44.850Z,17.71
2023-05-24T04:50:12.517Z,17.84
2023-05-24T04:52:40.096Z,17.97
2023-05-24T04:55:08.147Z,18.12
2023-05-24T04:57:35.692Z,18.25
2023-05-24T05:00:04.819Z,18.37
2023-05-24T05:02:32.935Z,18.48
2023-05-24T05:05:00.740Z,18.61
2023-05-24T05:07:28.183Z,18.74
2023-05-24T05:09:56.840Z,18.88
2023-05-24T05:12:25.324Z,19.03
2023-05-24T05:14:53.107Z,19.16
2023-05-24T05:17:21.717Z,19.28
2023-05-24T05:19:49.558Z,19.38
2023-05-24T05:22:17.406Z,19.48
2023-05-24T05:24:44.929Z,19.62
2023-05-24T05:27:12.452Z,19.79
2023-05-24T05:29:42.264Z,19.95
2023-05-24T05:32:09.978Z,20.08
2023-05-24T05:34:37.734Z,20.18
2023-05-24T05:37:05.383Z,20.28
2023-05-24T05:39:33.348Z,20.41
2023-05-24T05:42:02.263Z,20.57
2023-05-24T05:44:30.390Z,20.70
2023-05-24T05:46:58.067Z,20.78
2023-05-24T05:49:25.834Z,20.89
2023-05-24T05:51:54.818Z,21.01
2023-05-24T05:54:22.325Z,21.09
2023-05-24T05:56:51.075Z,21.15
2023-05-24T05:59:19.473Z,21.21
2023-05-24T06:01:49.015Z,21.28
2023-05-24T06:04:17.086Z,21.37
2023-05-24T06:06:48.326Z,21.46
2023-05-24T06:09:17.148Z,21.55
2023-05-24T06:11:45.370Z,21.62
2023-05-24T06:14:19.559Z,21.69
2023-05-24T06:16:48.238Z,21.79
2023-05-24T06:19:16.660Z,21.87
2023-05-24T06:21:48.224Z,21.96
2023-05-24T06:24:20.477Z,22.05
2023-05-24T06:26:52.780Z,22.11
2023-05-24T06:29:22.065Z,22.17
2023-05-24T06:31:50.537Z,22.22
2023-05-24T06:34:21.316Z,22.30
2023-05-24T06:36:50.817Z,22.41
2023-05-24T06:39:19.264Z,22.50
2023-05-24T06:41:47.448Z,22.56
2023-05-24T06:44:16.260Z,22.63
2023-05-24T06:46:43.889Z,22.68
2023-05-24T06:49:12.675Z,22.70
2023-05-24T06:51:41.776Z,22.71
2023-05-24T06:54:09.369Z,22.74
2023-05-24T06:56:36.920Z,22.75
2023-05-24T06:59:04.461Z,22.79
2023-05-24T07:01:33.193Z,22.82
2023-05-24T07:04:00.842Z,22.86
2023-05-24T07:06:28.421Z,22.85
2023-05-24T07:08:56.092Z,22.85
2023-05-24T07:11:23.902Z,22.88
2023-05-24T07:13:51.422Z,22.93
2023-05-24T07:16:19.043Z,22.99
2023-05-24T07:18:46.665Z,23.06
2023-05-24T07:21:14.224Z,23.13
2023-05-24T07:23:41.948Z,23.21
2023-05-24T07:26:10.025Z,23.26
2023-05-24T07:28:38.735Z,23.31
2023-05-24T07:31:08.190Z,23.36
2023-05-24T07:33:37.757Z,23.42
2023-05-24T07:36:06.631Z,23.50
2023-05-24T07:38:35.211Z,23.60
2023-05-24T07:41:04.769Z,23.74
2023-05-24T07:43:32.713Z,23.88
2023-05-24T07:46:00.341Z,24.05
2023-05-24T07:48:27.898Z,24.21
2023-05-24T07:50:56.442Z,24.23
2023-05-24T07:53:24.045Z,24.19
2023-05-24T07:55:51.662Z,24.26
2023-05-24T07:58:19.480Z,24.37
2023-05-24T08:00:47.064Z,24.47
2023-05-24T08:03:15.481Z,24.57
2023-05-24T08:05:43.829Z,24.70
2023-05-24T08:08:11.676Z,24.82
2023-05-24T08:10:39.251Z,24.89
2023-05-24T08:13:08.133Z,24.99
2023-05-24T08:15:35.590Z,25.11
2023-05-24T08:18:03.682Z,25.17
2023-05-24T08:20:36.023Z,25.22
2023-05-24T08:23:03.650Z,25.28
2023-05-24T08:25:31.533Z,25.37
2023-05-24T08:27:59.378Z,25.42
2023-05-24T08:30:26.978Z,25.50
2023-05-24T08:32:54.542Z,25.59
2023-05-24T08:35:23.229Z,25.68
2023-05-24T08:37:50.781Z,25.74
2023-05-24T08:40:18.668Z,25.80
2023-05-24T08:42:46.699Z,25.85
2023-05-24T08:45:15.708Z,25.88
2023-05-24T08:47:45.179Z,25.91
2023-05-24T08:50:13.274Z,25.96
2023-05-24T08:52:42.708Z,26.02
2023-05-24T08:55:11.413Z,26.10
2023-05-24T08:57:41.706Z,26.20
2023-05-24T09:00:13.784Z,26.22
2023-05-24T09:02:43.616Z,26.29
2023-05-24T09:05:14.427Z,26.43
2023-05-24T09:07:43.975Z,26.56
2023-05-24T09:10:12.108Z,26.66
2023-05-24T09:12:48.900Z,26.78
2023-05-24T09:15:16.341Z,26.91
2023-05-24T09:17:44.102Z,27.00
2023-05-24T09:20:13.353Z,27.13
2023-05-24T09:22:42.725Z,27.28
2023-05-24T09:25:14.006Z,27.46
2023-05-24T09:27:49.077Z,27.64
2023-05-24T09:30:17.070Z,27.92
2023-05-24T09:33:01.322Z,28.22
2023-05-24T09:35:29.040Z,28.49
2023-05-24T09:38:00.539Z,28.72
2023-05-24T09:40:29.545Z,28.98
2023-05-24T09:43:11.663Z,29.19
2023-05-24T09:45:46.936Z,29.32
2023-05-24T09:48:20.021Z,29.45
2023-05-24T09:51:07.180Z,29.63
2023-05-24T09:53:36.108Z,29.87
2023-05-24T09:56:05.922Z,30.06
2023-05-24T09:58:33.551Z,30.32
2023-05-24T10:01:13.984Z,30.49
2023-05-24T10:03:59.731Z,30.60
2023-05-24T10:06:35.700Z,30.76
2023-05-24T10:09:13.841Z,30.94
2023-05-24T10:11:41.482Z,30.91
2023-05-24T10:14:09.632Z,30.83
2023-05-24T10:16:40.111Z,30.80
2023-05-24T10:19:07.870Z,30.65
2023-05-24T10:21:40.176Z,30.46
2023-05-24T10:24:12.124Z,30.28
2023-05-24T10:26:42.468Z,30.10
2023-05-24T10:29:25.444Z,30.00
2023-05-24T10:31:54.302Z,30.00
2023-05-24T10:34:22.613Z,30.13
2023-05-24T10:36:51.423Z,30.28
2023-05-24T10:39:22.558Z,30.21
2023-05-24T10:41:50.311Z,30.09
2023-05-24T10:44:20.211Z,30.17
2023-05-24T10:47:19.548Z,30.24
2023-05-24T10:49:59.064Z,30.36
2023-05-24T10:52:37.026Z,30.42
2023-05-24T10:55:08.468Z,30.53
2023-05-24T10:57:38.992Z,30.65
2023-05-24T11:03:09.661Z,30.77
2023-05-24T11:05:58.451Z,30.76
2023-05-24T11:08:33.092Z,30.96
2023-05-24T11:11:22.050Z,31.44
2023-05-24T11:13:58.162Z,32.06
2023-05-24T11:16:45.270Z,32.52
2023-05-24T11:19:18.099Z,32.63
2023-05-24T11:21:47.822Z,32.73
2023-05-24T11:24:19.922Z,32.58
2023-05-24T11:26:47.549Z,32.23
2023-05-24T11:29:17.894Z,31.69
2023-05-24T11:31:54.468Z,31.09
2023-05-24T11:34:22.308Z,30.54
2023-05-24T11:36:53.316Z,30.04
2023-05-24T11:39:21.036Z,29.60
2023-05-24T11:41:49.749Z,29.30
2023-05-24T11:44:21.380Z,29.11
2023-05-24T11:46:49.167Z,29.06
2023-05-24T11:49:17.902Z,29.18
2023-05-24T11:51:46.062Z,29.35
2023-05-24T11:54:13.653Z,29.51
2023-05-24T11:56:41.082Z,29.54
2023-05-24T11:59:10.094Z,29.64
2023-05-24T12:01:38.059Z,29.64
2023-05-24T12:04:07.277Z,29.64
2023-05-24T12:06:41.271Z,29.75
2023-05-24T12:09:10.980Z,29.97
2023-05-24T12:11:47.813Z,30.08
2023-05-24T12:14:25.875Z,30.20
2023-05-24T12:16:58.330Z,30.30
2023-05-24T12:19:33.687Z,30.52
2023-05-24T12:22:05.818Z,30.69
2023-05-24T12:24:33.609Z,30.68
2023-05-24T12:27:03.338Z,30.61
2023-05-24T12:29:36.175Z,30.50
2023-05-24T12:32:04.469Z,30.38
2023-05-24T12:34:32.644Z,30.22
2023-05-24T12:37:00.245Z,30.05
2023-05-24T12:39:34.935Z,29.90
2023-05-24T12:42:04.272Z,29.75
2023-05-24T12:44:35.301Z,29.67
2023-05-24T12:47:04.639Z,29.62
2023-05-24T12:49:32.905Z,29.51
2023-05-24T12:52:01.818Z,29.49
2023-05-24T12:54:30.487Z,29.55
2023-05-24T12:57:05.293Z,29.66
2023-05-24T12:59:33.730Z,30.07
2023-05-24T13:02:02.298Z,30.95
2023-05-24T13:04:40.194Z,31.95
2023-05-24T13:07:08.046Z,32.48
2023-05-24T13:09:35.751Z,32.68
2023-05-24T13:12:03.539Z,32.88
2023-05-24T13:14:31.075Z,33.00
2023-05-24T13:16:58.987Z,33.06
2023-05-24T13:19:26.494Z,33.10
2023-05-24T13:21:54.308Z,33.10
2023-05-24T13:24:23.107Z,33.16
2023-05-24T13:26:52.998Z,33.19
2023-05-24T13:29:36.538Z,33.15
2023-05-24T13:32:07.360Z,33.02
2023-05-24T13:34:34.870Z,32.95
2023-05-24T13:37:02.804Z,32.86
2023-05-24T13:39:30.761Z,32.78
2023-05-24T13:42:00.614Z,32.67
2023-05-24T13:44:28.578Z,32.30
2023-05-24T13:46:56.537Z,32.03
2023-05-24T13:49:24.833Z,31.90
2023-05-24T13:51:55.589Z,32.01
2023-05-24T13:54:24.972Z,32.62
2023-05-24T13:56:52.536Z,33.52
2023-05-24T13:59:20.186Z,34.12
2023-05-24T14:01:47.755Z,34.46
2023-05-24T14:04:16.785Z,34.68
2023-05-24T14:06:44.476Z,34.79
2023-05-24T14:09:12.239Z,34.97
2023-05-24T14:11:39.772Z,35.00
2023-05-24T14:14:57.688Z,35.05
2023-05-24T14:16:55.367Z,34.92
2023-05-24T14:19:23.025Z,34.80
2023-05-24T14:21:50.956Z,35.30
2023-05-24T14:24:18.509Z,36.06
2023-05-24T14:26:47.439Z,36.88
2023-05-24T14:29:15.019Z,37.74
2023-05-24T14:31:43.494Z,38.61
2023-05-24T14:34:11.578Z,39.49
2023-05-24T14:36:41.476Z,40.35
2023-05-24T14:39:09.129Z,41.15
2023-05-24T14:41:36.711Z,41.25
2023-05-24T14:44:04.543Z,40.78
2023-05-24T14:46:32.243Z,40.47
2023-05-24T14:48:59.828Z,40.25
2023-05-24T14:51:27.313Z,40.07
2023-05-24T14:53:54.852Z,39.35
2023-05-24T14:56:22.867Z,38.53
2023-05-24T14:58:50.451Z,37.69
2023-05-24T15:01:18.140Z,36.88
2023-05-24T15:03:45.937Z,36.00
2023-05-24T15:06:14.366Z,35.26
2023-05-24T15:08:42.157Z,34.57
2023-05-24T15:11:09.820Z,33.91
2023-05-24T15:13:38.417Z,33.30
2023-05-24T15:16:06.113Z,32.83
2023-05-24T15:18:35.543Z,32.53
2023-05-24T15:21:03.655Z,32.21
2023-05-24T15:23:31.302Z,31.76
2023-05-24T15:25:58.898Z,31.34
2023-05-24T15:28:26.844Z,31.43
2023-05-24T15:30:55.286Z,32.15
2023-05-24T15:33:23.102Z,32.81
2023-05-24T15:35:50.687Z,33.53
2023-05-24T15:38:18.682Z,34.54
2023-05-24T15:40:46.859Z,35.31
2023-05-24T15:43:15.496Z,35.43
2023-05-24T15:45:43.872Z,35.34
2023-05-24T15:48:12.923Z,35.10
2023-05-24T15:53:11.574Z,34.46
2023-05-24T15:55:39.343Z,33.67
2023-05-24T15:58:06.998Z,32.81
2023-05-24T16:00:34.619Z,32.08
2023-05-24T16:03:02.456Z,31.40
2023-05-24T16:05:30.198Z,30.90
2023-05-24T16:07:57.773Z,30.45
2023-05-24T16:10:25.626Z,30.05
2023-05-24T16:12:53.358Z,29.75
2023-05-24T16:15:20.995Z,29.55
2023-05-24T16:17:48.592Z,29.53
2023-05-24T16:20:16.268Z,29.66
2023-05-24T16:22:49.723Z,29.99
2023-05-24T16:25:17.455Z,30.33
2023-05-24T16:27:45.466Z,30.54
2023-05-24T16:30:13.962Z,30.80
2023-05-24T16:32:41.966Z,30.83
2023-05-24T16:35:09.749Z,30.59
2023-05-24T16:37:37.553Z,30.14
2023-05-24T16:40:07.317Z,29.81
2023-05-24T16:42:35.316Z,29.73
2023-05-24T16:45:03.134Z,29.93
2023-05-24T16:47:31.232Z,30.32
2023-05-24T16:49:59.121Z,30.69
2023-05-24T16:52:27.615Z,30.71
2023-05-24T16:54:55.413Z,30.57
2023-05-24T16:57:23.031Z,30.08
2023-05-24T16:59:51.044Z,29.33
2023-05-24T17:02:18.948Z,28.68
2023-05-24T17:04:46.768Z,28.02
2023-05-24T17:07:14.345Z,27.44
2023-05-24T17:09:42.263Z,26.88
2023-05-24T17:12:09.958Z,26.46
2023-05-24T17:14:42.838Z,26.08
2023-05-24T17:17:11.883Z,25.77
2023-05-24T17:19:39.988Z,25.52
2023-05-24T17:22:08.518Z,25.27
2023-05-24T17:24:36.655Z,25.03
2023-05-24T17:27:04.986Z,24.80
2023-05-24T17:29:32.951Z,24.59
2023-05-24T17:32:01.033Z,24.42
2023-05-24T17:34:28.969Z,24.24
2023-05-24T17:36:56.834Z,24.05
2023-05-24T17:39:24.535Z,23.88
2023-05-24T17:41:52.825Z,23.71
2023-05-24T17:44:20.633Z,23.52
2023-05-24T17:46:48.459Z,23.34
2023-05-24T17:49:16.538Z,23.17
2023-05-24T17:51:44.231Z,23.01
2023-05-24T17:54:12.247Z,22.86
2023-05-24T17:56:40.490Z,22.73
2023-05-24T17:59:09.891Z,22.64
2023-05-24T18:01:38.051Z,22.57
2023-05-24T18:04:08.349Z,22.49
2023-05-24T18:06:37.414Z,22.38
2023-05-24T18:09:05.017Z,22.28
2023-05-24T18:11:32.748Z,22.16
2023-05-24T18:14:00.585Z,22.02
2023-05-24T18:16:28.188Z,21.89
2023-05-24T18:18:56.714Z,21.77
2023-05-24T18:21:24.841Z,21.67
2023-05-24T18:23:52.525Z,21.56
2023-05-24T18:26:20.257Z,21.43
2023-05-24T18:28:49.120Z,21.34
2023-05-24T18:31:16.751Z,21.22
2023-05-24T18:33:44.476Z,21.10
2023-05-24T18:36:12.926Z,21.03
2023-05-24T18:38:40.690Z,20.95
2023-05-24T18:41:12.292Z,20.87
2023-05-24T18:43:42.660Z,20.77
2023-05-24T18:46:14.894Z,20.68
2023-05-24T18:48:43.664Z,20.61
2023-05-24T18:51:11.368Z,20.55
2023-05-24T18:53:40.591Z,20.48
2023-05-24T18:56:08.436Z,20.43
2023-05-24T18:58:36.159Z,20.36
2023-05-24T19:01:03.748Z,20.30
2023-05-24T19:03:32.084Z,20.27
2023-05-24T19:06:00.708Z,20.23
2023-05-24T19:08:28.602Z,20.16
2023-05-24T19:10:56.479Z,20.12
2023-05-24T19:13:25.843Z,20.08
2023-05-24T19:15:53.721Z,20.03
2023-05-24T19:18:21.721Z,19.97
2023-05-24T19:20:50.230Z,19.93
2023-05-24T19:23:18.445Z,19.91
2023-05-24T19:25:50.053Z,19.89
2023-05-24T19:28:18.071Z,19.87
2023-05-24T19:30:45.644Z,19.84
2023-05-24T19:33:14.084Z,19.78
2023-05-24T19:35:41.943Z,19.70
2023-05-24T19:38:12.853Z,19.63
2023-05-24T19:40:40.869Z,19.53
2023-05-24T19:43:12.200Z,19.42
2023-05-24T19:45:39.663Z,19.36
2023-05-24T19:48:09.776Z,19.30
2023-05-24T19:50:39.780Z,19.24
2023-05-24T19:53:07.650Z,19.14
2023-05-24T19:55:36.444Z,19.06
2023-05-24T19:58:04.820Z,19.00
2023-05-24T20:00:32.724Z,18.94
2023-05-24T20:03:02.264Z,18.92
2023-05-24T20:05:30.962Z,18.89
2023-05-24T20:07:58.657Z,18.84
2023-05-24T20:10:28.552Z,18.82
2023-05-24T20:12:59.030Z,18.82
2023-05-24T20:15:28.384Z,18.79
2023-05-24T20:17:56.585Z,18.75
2023-05-24T20:20:27.477Z,18.71
2023-05-24T20:22:55.022Z,18.66
2023-05-24T20:25:24.136Z,18.60
2023-05-24T20:27:51.850Z,18.54
2023-05-24T20:30:19.602Z,18.50
2023-05-24T20:32:48.153Z,18.46
2023-05-24T20:35:15.691Z,18.41
2023-05-24T20:37:43.466Z,18.32
2023-05-24T20:40:13.263Z,18.24
2023-05-24T20:42:41.210Z,18.16
2023-05-24T20:45:09.637Z,18.11
2023-05-24T20:47:38.144Z,18.04
2023-05-24T20:50:07.812Z,17.98
2023-05-24T20:52:36.356Z,17.93
2023-05-24T20:55:04.282Z,17.88
2023-05-24T20:57:32.744Z,17.81
2023-05-24T21:00:01.672Z,17.73
2023-05-24T21:02:29.286Z,17.64
2023-05-24T21:04:57.340Z,17.56
2023-05-24T21:07:25.129Z,17.48
2023-05-24T21:09:52.666Z,17.38
2023-05-24T21:12:20.764Z,17.30
2023-05-24T21:14:48.344Z,17.24
2023-05-24T21:17:15.961Z,17.18
2023-05-24T21:19:43.675Z,17.14
2023-05-24T21:22:11.216Z,17.08
2023-05-24T21:24:38.754Z,17.03
2023-05-24T21:27:08.087Z,16.98
2023-05-24T21:29:37.834Z,16.94
2023-05-24T21:32:05.372Z,16.90
2023-05-24T21:34:33.004Z,16.84
2023-05-24T21:37:01.151Z,16.80
2023-05-24T21:39:28.676Z,16.74
2023-05-24T21:41:56.222Z,16.65
2023-05-24T21:44:23.770Z,16.57
2023-05-24T21:46:51.367Z,16.50
2023-05-24T21:49:20.145Z,16.43
2023-05-24T21:51:47.912Z,16.37
2023-05-24T21:54:19.669Z,16.35
2023-05-24T21:56:48.146Z,16.31
2023-05-24T21:59:16.847Z,16.25
2023-05-24T22:01:44.438Z,16.20
2023-05-24T22:04:12.102Z,16.13
2023-05-24T22:06:41.956Z,16.09
2023-05-24T22:09:09.849Z,16.05
2023-05-24T22:11:41.195Z,16.03
2023-05-24T22:14:16.107Z,16.03
2023-05-24T22:16:44.145Z,16.02
2023-05-24T22:19:28.517Z,16.00
2023-05-24T22:22:08.794Z,15.96
2023-05-24T22:24:36.310Z,15.93
2023-05-24T22:27:05.294Z,15.88
2023-05-24T22:29:32.772Z,15.82
2023-05-24T22:32:00.347Z,15.77
2023-05-24T22:34:28.995Z,15.71
2023-05-24T22:36:57.369Z,15.65
2023-05-24T22:39:25.729Z,15.58
2023-05-24T22:41:53.668Z,15.51
2023-05-24T22:44:22.738Z,15.46
2023-05-24T22:46:53.842Z,15.39
2023-05-24T22:49:21.899Z,15.32
2023-05-24T22:51:51.943Z,15.27
2023-05-24T22:54:19.450Z,15.22
2023-05-24T22:56:47.066Z,15.18
2023-05-24T22:59:14.698Z,15.13
2023-05-24T23:01:44.684Z,15.08
2023-05-24T23:04:20.969Z,15.02
2023-05-24T23:06:52.838Z,14.97
2023-05-24T23:09:34.127Z,14.93
2023-05-24T23:12:08.328Z,14.88
2023-05-24T23:14:39.239Z,14.83
2023-05-24T23:17:10.547Z,14.79
2023-05-24T23:19:44.873Z,14.78
2023-05-24T23:22:18.250Z,14.76
2023-05-24T23:24:49.761Z,14.73
2023-05-24T23:27:17.534Z,14.73
2023-05-24T23:29:45.089Z,14.74
2023-05-24T23:32:12.723Z,14.76
2023-05-24T23:34:41.067Z,14.77
2023-05-24T23:37:09.864Z,14.80
2023-05-24T23:39:37.286Z,14.82
2023-05-24T23:42:06.465Z,14.84
2023-05-24T23:44:34.355Z,14.83
2023-05-24T23:47:02.131Z,14.79
2023-05-24T23:49:29.863Z,14.73
2023-05-24T23:51:58.026Z,14.70
2023-05-24T23:54:26.029Z,14.71
2023-05-24T23:56:54.806Z,14.73
2023-05-24T23:59:22.549Z,14.75
